Impacts METAR Board
IDs:

KBBD - Brady/Curtis Fld, TX, US

Updated at: 0600 UTC 19 Aug 2019
Potential Impact None Slight Moderate High
Time 18/18Z 18/19Z 18/20Z 18/21Z 18/22Z 18/23Z 19/00Z 19/01Z 19/02Z 19/03Z 19/04Z 19/05Z 19/06Z
Temp93 95 99 99 100 100 99 95 91 88 86 86 84
Dewpt64 63 61 59 55 55 57 59 59 61 63 63 66
Altim29.92 29.90 29.89 29.87 29.86 29.85 29.85 29.86 29.87 29.90 29.92 29.94 29.95
VIS10 10 10 10 10 10 10 10 10 10 10 10 10
CIG-- -- -- -- -- -- -- -- -- -- -- -- --
CoverCLRCLRCLRCLRCLRCLRCLRCLRCLRCLRCLRCLRCLR
FltCatVFRVFRVFRVFRVFRVFRVFRVFRVFRVFRVFRVFRVFR
WX--------------------------
WDir22020000130160140140140150150170160
WSpd7 6 6 9 8 10 8 8 6 7 7 7 11
WGst18 15 14 17 18 -- 16 14 -- -- -- -- 18
Raw hourly METARs
KBBD 181755Z AUTO 22007G18KT 10SM CLR 34/18 A2992 RMK AO2
KBBD 181855Z AUTO 20006G15KT 10SM CLR 35/17 A2990 RMK AO2
KBBD 181955Z AUTO VRB06G14KT 10SM CLR 37/16 A2989 RMK AO2
KBBD 182055Z AUTO VRB09G17KT 10SM CLR 37/15 A2987 RMK AO2
KBBD 182155Z AUTO 13008G18KT 10SM CLR 38/13 A2986 RMK AO2
KBBD 182255Z AUTO 16010KT 10SM CLR 38/13 A2985 RMK AO2
KBBD 182355Z AUTO 14008G16KT 10SM CLR 37/14 A2985 RMK AO2
KBBD 190055Z AUTO 14008G14KT 10SM CLR 35/15 A2986 RMK AO2
KBBD 190155Z AUTO 14006KT 10SM CLR 33/15 A2987 RMK AO2
KBBD 190255Z AUTO 15007KT 10SM CLR 31/16 A2990 RMK AO2
KBBD 190355Z AUTO 15007KT 10SM CLR 30/17 A2992 RMK AO2
KBBD 190455Z AUTO 17007KT 10SM CLR 30/17 A2994 RMK AO2
KBBD 190555Z AUTO 16011G18KT 10SM CLR 29/19 A2995 RMK AO2



Page loaded:  06:15 UTC  |   11:15 PM Pacific  |   12:15 AM Mountain  |   01:15 AM Central  |   02:15 AM Eastern

 

ADVISORIES

FORECASTS

FORECASTS

OBSERVATIONS

USER TOOLS

ABOUT US